createdAt,value
2016-06-19T00:00:47.640Z,83.08
2016-06-19T00:02:01.659Z,82.89
2016-06-19T00:02:47.475Z,82.79
2016-06-19T00:03:46.822Z,82.89
2016-06-19T00:04:47.670Z,82.51
2016-06-19T00:07:47.883Z,82.89
2016-06-19T00:08:47.073Z,82.89
2016-06-19T00:09:47.047Z,82.7
2016-06-19T00:11:46.866Z,82.31
2016-06-19T00:12:46.854Z,82.41
2016-06-19T00:13:47.107Z,82.89
2016-06-19T00:14:47.283Z,82.89
2016-06-19T00:15:47.301Z,82.7
2016-06-19T00:16:47.101Z,83.17
2016-06-19T00:17:47.105Z,83.08
2016-06-19T00:18:47.124Z,82.98
2016-06-19T00:19:47.128Z,82.7
2016-06-19T00:20:46.913Z,82.6
2016-06-19T00:22:47.341Z,82.7
2016-06-19T00:23:46.938Z,82.7
2016-06-19T00:24:46.957Z,82.22
2016-06-19T00:25:46.961Z,82.41
2016-06-19T00:26:46.964Z,82.56
2016-06-19T00:27:46.968Z,82.18
2016-06-19T00:28:46.986Z,82.46
2016-06-19T00:29:46.990Z,83.04
2016-06-19T00:30:46.994Z,82.84
2016-06-19T00:31:47.013Z,83.04
2016-06-19T00:32:47.657Z,82.84
2016-06-19T00:34:47.883Z,83.04
2016-06-19T00:35:47.886Z,83.13
2016-06-19T00:37:01.874Z,82.94
2016-06-19T00:37:47.909Z,82.75
2016-06-19T00:38:48.334Z,82.84
2016-06-19T00:39:47.681Z,82.84
2016-06-19T00:40:47.700Z,82.56
2016-06-19T00:41:47.735Z,82.65
2016-06-19T00:43:02.317Z,82.84
2016-06-19T00:43:47.711Z,82.75
2016-06-19T00:44:47.762Z,82.46
2016-06-19T00:47:47.974Z,82.94
2016-06-19T00:49:47.748Z,82.75
2016-06-19T00:50:47.344Z,82.94
2016-06-19T00:51:47.145Z,82.65
2016-06-19T00:52:47.976Z,82.65
2016-06-19T00:53:47.776Z,82.56
2016-06-19T00:54:47.795Z,82.65
2016-06-19T00:55:48.002Z,82.84
2016-06-19T00:56:47.803Z,82.84
2016-06-19T00:58:02.228Z,82.84
2016-06-19T00:59:02.435Z,82.84
2016-06-19T00:59:47.797Z,82.84
2016-06-19T01:00:48.036Z,82.94
2016-06-19T01:01:48.242Z,83.13
2016-06-19T01:02:47.824Z,82.75
2016-06-19T01:04:02.483Z,82.75
2016-06-19T01:05:02.470Z,82.9
2016-06-19T01:06:02.068Z,83.18
2016-06-19T01:07:02.477Z,82.9
2016-06-19T01:07:47.887Z,82.81
2016-06-19T01:08:48.281Z,83.18
2016-06-19T01:09:47.675Z,82.9
2016-06-19T01:10:47.913Z,82.71
2016-06-19T01:11:47.449Z,82.81
2016-06-19T01:12:47.295Z,82.71
2016-06-19T01:13:47.471Z,82.61
2016-06-19T01:14:47.927Z,82.52
2016-06-19T01:16:47.278Z,82.81
2016-06-19T01:17:47.485Z,82.71
2016-06-19T01:18:47.301Z,83
2016-06-19T01:19:47.507Z,83.09
2016-06-19T01:20:47.323Z,82.9
2016-06-19T01:21:47.529Z,83
2016-06-19T01:22:47.329Z,82.9
2016-06-19T01:23:47.349Z,83.18
2016-06-19T01:24:47.337Z,83.18
2016-06-19T01:25:47.356Z,83.18
2016-06-19T01:27:48.222Z,83.18
2016-06-19T01:28:48.241Z,83.47
2016-06-19T01:30:02.401Z,83.09
2016-06-19T01:31:47.577Z,83.18
2016-06-19T01:33:02.224Z,83
2016-06-19T01:35:48.453Z,83.18
2016-06-19T01:36:48.050Z,83.57
2016-06-19T01:37:48.053Z,83.28
2016-06-19T01:38:47.428Z,83.18
2016-06-19T01:39:47.823Z,83.38
2016-06-19T01:40:47.436Z,83.09
2016-06-19T01:41:47.439Z,83.09
2016-06-19T01:42:48.274Z,82.71
2016-06-19T01:43:47.665Z,82.81
2016-06-19T01:45:47.469Z,83
2016-06-19T01:47:48.510Z,83.38
2016-06-19T01:50:02.517Z,83.38
2016-06-19T01:50:48.158Z,83.47
2016-06-19T01:51:48.571Z,83
2016-06-19T01:52:48.591Z,83.18
2016-06-19T01:53:48.169Z,83.14
2016-06-19T01:54:48.140Z,83.34
2016-06-19T01:55:48.780Z,83.67
2016-06-19T01:56:48.374Z,82.86
2016-06-19T01:58:02.419Z,82.86
2016-06-19T01:59:02.597Z,83.14
2016-06-19T01:59:48.207Z,82.86
2016-06-19T02:00:47.555Z,82.86
2016-06-19T02:01:47.592Z,82.95
2016-06-19T02:02:47.580Z,83.05
2016-06-19T02:03:47.992Z,83.14
2016-06-19T02:04:47.590Z,83.24
2016-06-19T02:05:47.594Z,83.34
2016-06-19T02:06:47.614Z,83.34
2016-06-19T02:07:48.258Z,83.24
2016-06-19T02:08:47.622Z,83.34
2016-06-19T02:10:02.660Z,83.14
2016-06-19T02:11:02.461Z,83.34
2016-06-19T02:11:48.492Z,83.34
2016-06-19T02:12:48.042Z,83.72
2016-06-19T02:13:47.639Z,83.53
2016-06-19T02:14:47.643Z,83.43
2016-06-19T02:15:47.647Z,83.53
2016-06-19T02:16:47.664Z,83.81
2016-06-19T02:17:47.903Z,83.72
2016-06-19T02:18:48.329Z,83.43
2016-06-19T02:21:02.932Z,83.62
2016-06-19T02:22:02.733Z,83.62
2016-06-19T02:22:48.343Z,83.43
2016-06-19T02:23:48.580Z,83.53
2016-06-19T02:26:02.560Z,83.43
2016-06-19T02:26:48.388Z,83.24
2016-06-19T02:27:48.563Z,83.24
2016-06-19T02:29:02.773Z,83.43
2016-06-19T02:29:47.742Z,83.43
2016-06-19T02:31:02.577Z,83.24
2016-06-19T02:31:47.749Z,83.34
2016-06-19T02:32:48.189Z,83.34
2016-06-19T02:33:47.974Z,83.24
2016-06-19T02:34:47.759Z,83.14
2016-06-19T02:35:48.403Z,83.34
2016-06-19T02:36:48.422Z,83.43
2016-06-19T02:37:48.440Z,83.43
2016-06-19T02:38:49.023Z,83.24
2016-06-19T02:39:48.416Z,83.43
2016-06-19T02:40:47.810Z,83.53
2016-06-19T02:41:48.642Z,83.72
2016-06-19T02:42:48.646Z,83.72
2016-06-19T02:44:02.872Z,83.62
2016-06-19T02:45:02.672Z,83.72
2016-06-19T02:45:48.672Z,84
2016-06-19T02:48:03.308Z,83.72
2016-06-19T02:48:48.698Z,83.81
2016-06-19T02:49:48.044Z,83.81
2016-06-19T02:50:47.845Z,83.91
2016-06-19T02:51:48.286Z,83.72
2016-06-19T02:52:48.072Z,83.91
2016-06-19T02:54:47.859Z,83.81
2016-06-19T02:55:48.113Z,83.43
2016-06-19T02:56:47.897Z,83.34
2016-06-19T02:57:49.134Z,83.24
2016-06-19T02:58:48.560Z,83.81
2016-06-19T02:59:48.533Z,83.81
2016-06-19T03:01:02.961Z,83.53
2016-06-19T03:01:48.570Z,83.34
2016-06-19T03:02:48.340Z,83.43
2016-06-19T03:03:48.562Z,83.43
2016-06-19T03:04:48.581Z,83.91
2016-06-19T03:05:48.147Z,83.43
2016-06-19T03:06:48.573Z,83.24
2016-06-19T03:07:48.794Z,83.34
2016-06-19T03:08:48.002Z,83.53
2016-06-19T03:09:47.973Z,83.43
2016-06-19T03:10:48.570Z,83.34
2016-06-19T03:11:47.980Z,83.24
2016-06-19T03:12:48.171Z,83.14
2016-06-19T03:13:47.972Z,83.34
2016-06-19T03:14:48.210Z,83.53
2016-06-19T03:15:48.041Z,83.43
2016-06-19T03:16:47.997Z,83.91
2016-06-19T03:18:47.990Z,83.34
2016-06-19T03:19:48.007Z,83.34
2016-06-19T03:20:48.011Z,83.53
2016-06-19T03:21:48.062Z,83.91
2016-06-19T03:22:48.846Z,83.72
2016-06-19T03:23:48.865Z,83.62
2016-06-19T03:24:48.932Z,83.91
2016-06-19T03:25:48.686Z,83.24
2016-06-19T03:26:48.892Z,83.34
2016-06-19T03:27:48.676Z,83.43
2016-06-19T03:30:03.109Z,83.24
2016-06-19T03:31:02.909Z,83.53
2016-06-19T03:31:48.737Z,83.62
2016-06-19T03:32:48.740Z,83.14
2016-06-19T03:34:20.326Z,83.53
2016-06-19T03:34:48.076Z,83.34
2016-06-19T03:35:48.095Z,83.62
2016-06-19T03:36:48.941Z,83.24
2016-06-19T03:37:48.742Z,83.14
2016-06-19T03:39:03.374Z,83.43
2016-06-19T03:40:03.174Z,83.43
2016-06-19T03:41:48.959Z,83.24
2016-06-19T03:42:48.775Z,83.62
2016-06-19T03:44:03.188Z,83.38
2016-06-19T03:44:48.782Z,83.38
2016-06-19T03:46:03.195Z,83.47
2016-06-19T03:46:49.008Z,83.28
2016-06-19T03:47:49.230Z,83
2016-06-19T03:48:49.217Z,83.47
2016-06-19T03:49:48.925Z,83.18
2016-06-19T03:50:48.600Z,83.18
2016-06-19T03:51:48.196Z,82.52
2016-06-19T03:52:48.199Z,82.9
2016-06-19T03:53:48.204Z,82.9
2016-06-19T03:54:48.411Z,82.9
2016-06-19T03:55:48.210Z,83.09
2016-06-19T03:56:48.214Z,83.28
2016-06-19T03:57:48.436Z,82.81
2016-06-19T04:00:48.244Z,82.9
2016-06-19T04:01:48.466Z,83
2016-06-19T04:02:48.281Z,82.61
2016-06-19T04:03:48.270Z,82.61
2016-06-19T04:05:49.120Z,83.18
2016-06-19T04:06:49.514Z,83
2016-06-19T04:08:03.334Z,83
2016-06-19T04:08:49.115Z,83.28
2016-06-19T04:10:03.153Z,83.04
2016-06-19T04:10:48.309Z,82.94
2016-06-19T04:11:49.188Z,83
2016-06-19T04:12:48.318Z,82.84
2016-06-19T04:13:48.731Z,82.56
2016-06-19T04:14:48.328Z,82.75
2016-06-19T04:15:48.552Z,82.75
2016-06-19T04:16:48.354Z,82.84
2016-06-19T04:17:48.374Z,82.84
2016-06-19T04:18:48.363Z,82.65
2016-06-19T04:19:48.366Z,82.56
2016-06-19T04:20:48.574Z,82.46
2016-06-19T04:21:48.422Z,82.75
2016-06-19T04:22:48.394Z,82.65
2016-06-19T04:23:48.428Z,82.65
2016-06-19T04:24:48.432Z,82.65
2016-06-19T04:25:48.405Z,82.84
2016-06-19T04:26:48.439Z,82.18
2016-06-19T04:28:48.633Z,82.37
2016-06-19T04:29:49.293Z,82.79
2016-06-19T04:30:49.297Z,82.41
2016-06-19T04:31:49.096Z,82.31
2016-06-19T04:32:48.490Z,82.31
2016-06-19T04:33:49.322Z,82.22
2016-06-19T04:34:49.326Z,82.03
2016-06-19T04:36:49.551Z,82.12
2016-06-19T04:37:49.352Z,82.03
2016-06-19T04:39:03.780Z,81.93
2016-06-19T04:40:03.752Z,81.55
2016-06-19T04:41:03.397Z,81.84
2016-06-19T04:41:49.163Z,82.12
2016-06-19T04:43:03.420Z,82.12
2016-06-19T04:44:03.783Z,81.84
2016-06-19T04:45:04.035Z,81.93
2016-06-19T04:46:03.602Z,81.84
2016-06-19T04:46:49.211Z,81.84
2016-06-19T04:47:49.434Z,81.84
2016-06-19T04:48:49.062Z,81.74
2016-06-19T04:50:49.241Z,81.84
2016-06-19T04:52:48.888Z,81.65
2016-06-19T04:53:49.032Z,81.93
2016-06-19T04:54:48.613Z,82.41
2016-06-19T04:55:48.914Z,82.31
2016-06-19T04:56:48.621Z,82.12
2016-06-19T04:57:49.046Z,82.31
2016-06-19T04:58:48.643Z,82.22
2016-06-19T04:59:48.647Z,82.12
2016-06-19T05:00:48.650Z,82.22
2016-06-19T05:01:48.669Z,82.22
2016-06-19T05:02:48.876Z,82.03
2016-06-19T05:03:48.911Z,82.12
2016-06-19T05:04:48.695Z,82.03
2016-06-19T05:05:48.683Z,82.22
2016-06-19T05:06:48.749Z,81.84
2016-06-19T05:07:48.721Z,81.74
2016-06-19T05:08:49.584Z,81.55
2016-06-19T05:10:48.763Z,81.93
2016-06-19T05:11:48.735Z,82.03
2016-06-19T05:12:48.973Z,81.84
2016-06-19T05:13:48.976Z,81.93
2016-06-19T05:14:48.792Z,81.93
2016-06-19T05:15:48.795Z,81.68
2016-06-19T05:16:48.799Z,82.07
2016-06-19T05:17:49.427Z,81.59
2016-06-19T05:18:49.666Z,82.17
2016-06-19T05:19:48.809Z,81.49
2016-06-19T05:20:48.828Z,81.78
2016-06-19T05:21:50.035Z,81.78
2016-06-19T05:22:49.664Z,82.45
2016-06-19T05:23:49.042Z,82.35
2016-06-19T05:24:48.843Z,82.54
2016-06-19T05:25:49.080Z,81.78
2016-06-19T05:26:48.865Z,82.45
2016-06-19T05:27:48.869Z,82.45
2016-06-19T05:28:48.887Z,82.3
2016-06-19T05:29:48.891Z,81.92
2016-06-19T05:30:49.519Z,81.92
2016-06-19T05:31:49.522Z,82.3
2016-06-19T05:33:49.545Z,81.05
2016-06-19T05:34:49.127Z,81.25
2016-06-19T05:35:48.943Z,80.96
2016-06-19T05:36:49.556Z,81.48
2016-06-19T05:37:49.154Z,81.67
2016-06-19T05:38:48.968Z,81.67
2016-06-19T05:39:49.378Z,81
2016-06-19T05:40:49.179Z,81.2
2016-06-19T05:41:49.183Z,81
2016-06-19T05:42:48.998Z,81.38
2016-06-19T05:43:49.003Z,81.48
2016-06-19T05:44:49.223Z,81.38
2016-06-19T05:45:49.431Z,81.29
2016-06-19T05:46:49.871Z,80.81
2016-06-19T05:47:49.703Z,81
2016-06-19T05:48:49.707Z,80.81
2016-06-19T05:49:49.725Z,81
2016-06-19T05:51:04.327Z,81
2016-06-19T05:51:49.905Z,81.2
2016-06-19T05:52:49.737Z,81
2016-06-19T05:53:49.926Z,80.62
2016-06-19T05:54:49.744Z,81
2016-06-19T05:55:49.933Z,80.81
2016-06-19T05:56:49.953Z,80.71
2016-06-19T05:57:49.957Z,81
2016-06-19T05:58:49.132Z,81.13
2016-06-19T06:00:49.810Z,80.85
2016-06-19T06:02:03.990Z,80.85
2016-06-19T06:02:49.833Z,80.37
2016-06-19T06:05:04.031Z,80.85
2016-06-19T06:06:50.065Z,80.56
2016-06-19T06:07:49.882Z,80.94
2016-06-19T06:08:49.839Z,80.66
2016-06-19T06:09:49.232Z,80.94
2016-06-19T06:10:49.235Z,80.56
2016-06-19T06:11:49.239Z,80.37
2016-06-19T06:12:49.259Z,80.66
2016-06-19T06:13:49.309Z,80.85
2016-06-19T06:14:49.485Z,80.94
2016-06-19T06:15:49.691Z,80.85
2016-06-19T06:17:49.307Z,80.76
2016-06-19T06:18:49.310Z,80.94
2016-06-19T06:19:49.969Z,80.76
2016-06-19T06:20:49.520Z,80.85
2016-06-19T06:21:49.523Z,80.18
2016-06-19T06:22:49.340Z,80.79
2016-06-19T06:23:49.562Z,80.79
2016-06-19T06:24:50.847Z,80.37
2016-06-19T06:26:04.212Z,80.03
2016-06-19T06:26:50.634Z,80.22
2016-06-19T06:28:04.445Z,80.32
2016-06-19T06:28:50.007Z,80.41
2016-06-19T06:29:49.641Z,79.83
2016-06-19T06:30:49.448Z,80.03
2016-06-19T06:32:49.481Z,80.12
2016-06-19T06:33:50.534Z,80.41
2016-06-19T06:34:50.149Z,80.32
2016-06-19T06:35:50.343Z,80.12
2016-06-19T06:36:49.505Z,80.41
2016-06-19T06:37:50.166Z,79.83
2016-06-19T06:38:50.373Z,80.32
2016-06-19T06:39:50.800Z,80.22
2016-06-19T06:40:50.601Z,80.51
2016-06-19T06:41:50.183Z,80.32
2016-06-19T06:42:50.204Z,80.07
2016-06-19T06:43:50.253Z,79.78
2016-06-19T06:44:50.429Z,79.64
2016-06-19T06:45:49.807Z,79.39
2016-06-19T06:46:49.608Z,79.39
2016-06-19T06:47:49.830Z,79.21
2016-06-19T06:48:49.630Z,78.34
2016-06-19T06:49:49.634Z,78.53
2016-06-19T06:50:49.637Z,78.82
2016-06-19T06:51:49.656Z,78.34
2016-06-19T06:52:50.535Z,78.82
2016-06-19T06:53:50.319Z,78.72
2016-06-19T06:54:50.323Z,78.44
2016-06-19T06:55:50.342Z,78.53
2016-06-19T06:56:50.377Z,78.53
2016-06-19T06:57:50.583Z,78.34
2016-06-19T06:58:49.790Z,78.34
2016-06-19T06:59:50.402Z,78.47
2016-06-19T07:01:04.597Z,78.38
2016-06-19T07:02:50.600Z,78.09
2016-06-19T07:03:50.401Z,78.19
2016-06-19T07:05:50.627Z,78.09
2016-06-19T07:06:49.801Z,78
2016-06-19T07:07:50.665Z,77.94
2016-06-19T07:08:51.903Z,77.36
2016-06-19T07:09:50.249Z,77.26
2016-06-19T07:11:04.709Z,76.5
2016-06-19T07:11:50.506Z,76.88
2016-06-19T07:13:50.530Z,76.21
2016-06-19T07:14:50.533Z,76.4
2016-06-19T07:15:49.895Z,76.34
2016-06-19T07:16:49.914Z,75.96
2016-06-19T07:17:51.011Z,76.82
2016-06-19T07:18:49.968Z,75.67
2016-06-19T07:19:49.940Z,75.77
2016-06-19T07:20:49.944Z,76.06
2016-06-19T07:22:49.981Z,75.87
2016-06-19T07:23:50.189Z,75.29
2016-06-19T07:24:50.645Z,75.77
2016-06-19T07:25:50.649Z,75.81
2016-06-19T07:26:51.074Z,75.04
2016-06-19T07:27:50.234Z,75.13
2016-06-19T07:28:50.035Z,73.88
2016-06-19T07:30:05.103Z,73.88
2016-06-19T07:30:50.697Z,74.65
2016-06-19T07:33:50.755Z,74.46
2016-06-19T07:35:04.965Z,74.85
2016-06-19T07:35:50.324Z,74.37
2016-06-19T07:36:50.780Z,74.69
2016-06-19T07:37:50.721Z,74.11
2016-06-19T07:38:50.616Z,74.02
2016-06-19T07:39:51.103Z,73.83
2016-06-19T07:40:50.294Z,72.58
2016-06-19T07:41:52.782Z,72.19
2016-06-19T07:42:51.708Z,72.67
2016-06-19T07:43:50.367Z,70.56
2016-06-19T07:44:51.136Z,72.09
2016-06-19T07:46:51.128Z,71.81
2016-06-19T07:47:51.162Z,72.58
2016-06-19T07:48:51.416Z,72.67
2016-06-19T07:50:05.360Z,72.29
2016-06-19T07:50:50.922Z,73.06
2016-06-19T07:51:50.316Z,73.44
2016-06-19T07:52:50.320Z,73.15
2016-06-19T07:53:50.339Z,72.77
2016-06-19T07:55:50.362Z,71.36
2016-06-19T07:57:50.775Z,71.65
2016-06-19T07:58:51.247Z,71.55
2016-06-19T08:00:05.270Z,71.2
2016-06-19T08:01:51.179Z,70.78
2016-06-19T08:02:50.449Z,69.95
2016-06-19T08:03:50.452Z,70.3
2016-06-19T08:04:50.471Z,69.92
2016-06-19T08:07:22.826Z,70.88
2016-06-19T08:07:50.498Z,70.5
2016-06-19T08:08:51.390Z,71.26
2016-06-19T08:10:05.772Z,71.46
2016-06-19T08:11:05.386Z,71.46
2016-06-19T08:11:51.386Z,71.75
2016-06-19T08:12:51.201Z,72.13
2016-06-19T08:13:51.205Z,71.55
2016-06-19T08:14:50.600Z,71.55
2016-06-19T08:15:50.603Z,70.88
2016-06-19T08:16:50.623Z,71.84
2016-06-19T08:17:51.703Z,70.98
2016-06-19T08:18:51.035Z,70.98
2016-06-19T08:19:50.883Z,70.88
2016-06-19T08:21:50.890Z,71.17
2016-06-19T08:24:05.962Z,71.08
2016-06-19T08:25:05.762Z,71.46
2016-06-19T08:26:05.563Z,71.26
2016-06-19T08:27:05.800Z,71.17
2016-06-19T08:27:51.581Z,70.3
2016-06-19T08:28:50.773Z,69.92
2016-06-19T08:29:50.979Z,70.11
2016-06-19T08:30:51.436Z,70.3
2016-06-19T08:32:05.849Z,69.82
2016-06-19T08:32:50.818Z,70.59
2016-06-19T08:33:51.899Z,69.06
2016-06-19T08:34:51.060Z,69.73
2016-06-19T08:36:51.722Z,67.74
2016-06-19T08:37:51.726Z,68.51
2016-06-19T08:39:05.764Z,68.9
2016-06-19T08:39:51.748Z,68.32
2016-06-19T08:40:51.534Z,68.6
2016-06-19T08:41:50.927Z,69.18
2016-06-19T08:42:50.930Z,68.99
2016-06-19T08:44:05.799Z,68.7
2016-06-19T08:44:50.955Z,69.09
2016-06-19T08:45:51.509Z,69.18
2016-06-19T08:46:51.640Z,69.18
2016-06-19T08:47:52.068Z,69.09
2016-06-19T08:48:51.667Z,69.47
2016-06-19T08:51:06.088Z,68.7
2016-06-19T08:52:05.904Z,69.02
2016-06-19T08:52:51.717Z,68.99
2016-06-19T08:53:51.081Z,68.35
2016-06-19T08:55:51.308Z,68.26
2016-06-19T08:56:51.109Z,68.06
2016-06-19T08:57:51.143Z,68.35
2016-06-19T08:58:51.570Z,68.35
2016-06-19T08:59:52.073Z,67.19
2016-06-19T09:00:52.905Z,67.68
2016-06-19T09:01:52.455Z,67.97
2016-06-19T09:02:52.396Z,67
2016-06-19T09:03:51.852Z,67.39
2016-06-19T09:04:52.387Z,66.94
2016-06-19T09:05:51.438Z,67.52
2016-06-19T09:06:51.456Z,66.85
2016-06-19T09:07:51.570Z,66.65
2016-06-19T09:08:52.526Z,65.88
2016-06-19T09:11:06.145Z,66.17
2016-06-19T09:11:51.958Z,66.17
2016-06-19T09:12:51.571Z,65.43
2016-06-19T09:13:51.996Z,65.78
2016-06-19T09:14:52.000Z,66.01
2016-06-19T09:15:51.815Z,65.78
2016-06-19T09:16:51.413Z,66.17
2016-06-19T09:17:51.480Z,65.98
2016-06-19T09:18:51.654Z,65.69
2016-06-19T09:19:52.330Z,65.98
2016-06-19T09:20:52.130Z,66.46
2016-06-19T09:22:51.464Z,66.75
2016-06-19T09:23:51.515Z,66.65
2016-06-19T09:24:52.253Z,66.07
2016-06-19T09:25:52.335Z,66.14
2016-06-19T09:26:52.198Z,66.27
2016-06-19T09:27:52.154Z,66.62
2016-06-19T09:29:51.613Z,65.94
2016-06-19T09:30:51.617Z,65.75
2016-06-19T09:31:52.293Z,65.94
2016-06-19T09:32:52.297Z,66.33
2016-06-19T09:33:51.847Z,66.62
2016-06-19T09:34:51.851Z,66.81
2016-06-19T09:35:51.869Z,67.39
2016-06-19T09:36:51.685Z,67.1
2016-06-19T09:37:52.438Z,67.1
2016-06-19T09:38:52.411Z,66.81
2016-06-19T09:40:52.526Z,66.62
2016-06-19T09:41:51.687Z,66.71
2016-06-19T09:42:51.909Z,66.14
2016-06-19T09:43:51.912Z,65.88
2016-06-19T09:45:06.576Z,66.27
2016-06-19T09:45:53.419Z,65.98
2016-06-19T09:46:52.392Z,66.07
2016-06-19T09:48:52.461Z,65.98
2016-06-19T09:49:51.808Z,66.27
2016-06-19T09:50:51.827Z,65.11
2016-06-19T09:51:51.925Z,66.17
2016-06-19T09:52:51.835Z,65.78
2016-06-19T09:53:51.869Z,65.98
2016-06-19T09:54:52.622Z,66.27
2016-06-19T09:55:51.876Z,66.07
2016-06-19T09:56:51.879Z,65.59
2016-06-19T09:57:52.102Z,65.88
2016-06-19T09:59:52.562Z,66.01
2016-06-19T10:00:52.581Z,65.43
2016-06-19T10:01:51.959Z,64.56
2016-06-19T10:02:52.650Z,64.86
2016-06-19T10:03:52.607Z,64.76
2016-06-19T10:04:52.048Z,63.79
2016-06-19T10:06:52.008Z,64.31
2016-06-19T10:08:06.917Z,64.4
2016-06-19T10:09:07.127Z,63.73
2016-06-19T10:09:52.909Z,64.5
2016-06-19T10:10:52.725Z,63.15
2016-06-19T10:11:52.728Z,62.18
2016-06-19T10:12:52.934Z,62.09
2016-06-19T10:13:52.344Z,61.32
2016-06-19T10:15:53.008Z,62.66
2016-06-19T10:16:52.995Z,61.9
2016-06-19T10:17:52.983Z,61.22
2016-06-19T10:19:07.065Z,62.51
2016-06-19T10:19:53.240Z,62.31
2016-06-19T10:20:52.415Z,61.06
2016-06-19T10:21:52.888Z,60.96
2016-06-19T10:22:52.907Z,61.16
2016-06-19T10:23:52.254Z,62.6
2016-06-19T10:24:52.554Z,62.12
2016-06-19T10:25:52.932Z,60.99
2016-06-19T10:26:53.327Z,60.61
2016-06-19T10:28:53.209Z,59.74
2016-06-19T10:29:52.978Z,60.13
2016-06-19T10:30:52.357Z,58.68
2016-06-19T10:31:52.361Z,59.55
2016-06-19T10:32:52.395Z,56.68
2016-06-19T10:33:53.258Z,56.96
2016-06-19T10:34:53.308Z,56.96
2016-06-19T10:35:53.170Z,56.65
2016-06-19T10:36:52.659Z,56.56
2016-06-19T10:37:53.099Z,57.52
2016-06-19T10:38:52.727Z,56.94
2016-06-19T10:39:52.888Z,58.1
2016-06-19T10:40:52.547Z,58.77
2016-06-19T10:42:07.379Z,58.39
2016-06-19T10:42:52.727Z,58.87
2016-06-19T10:43:52.964Z,58.77
2016-06-19T10:44:53.218Z,57.62
2016-06-19T10:46:07.611Z,56.94
2016-06-19T10:46:52.787Z,57.42
2016-06-19T10:47:52.790Z,58.9
2016-06-19T10:48:53.247Z,57.54
2016-06-19T10:50:53.301Z,58.64
2016-06-19T10:51:53.320Z,58.54
2016-06-19T10:54:52.705Z,56.54
2016-06-19T10:55:52.724Z,56.93
2016-06-19T10:56:53.383Z,56.45
2016-06-19T10:57:53.371Z,56.35
2016-06-19T10:58:52.766Z,54.71
2016-06-19T10:59:53.175Z,55.09
2016-06-19T11:00:53.898Z,54.71
2016-06-19T11:02:08.262Z,54.51
2016-06-19T11:02:53.017Z,55.57
2016-06-19T11:03:52.835Z,55.47
2016-06-19T11:04:54.340Z,56.51
2016-06-19T11:05:52.875Z,56.99
2016-06-19T11:06:53.082Z,56.9
2016-06-19T11:07:53.102Z,56.9
2016-06-19T11:08:53.575Z,56.22
2016-06-19T11:09:52.954Z,56.71
2016-06-19T11:10:53.614Z,56.99
2016-06-19T11:11:54.212Z,58.03
2016-06-19T11:12:52.981Z,57.84
2016-06-19T11:13:53.000Z,57.54
2016-06-19T11:14:53.646Z,57.54
2016-06-19T11:15:53.649Z,57.35
2016-06-19T11:16:53.902Z,57.23
2016-06-19T11:18:25.190Z,56.48
2016-06-19T11:18:54.127Z,57.04
2016-06-19T11:19:53.303Z,57.32
2016-06-19T11:20:53.087Z,57.62
2016-06-19T11:21:53.341Z,58
2016-06-19T11:22:53.548Z,58.48
2016-06-19T11:23:53.145Z,58.19
2016-06-19T11:24:54.445Z,58.68
2016-06-19T11:25:53.854Z,59.16
2016-06-19T11:26:54.233Z,59.83
2016-06-19T11:27:53.831Z,59.45
2016-06-19T11:28:53.865Z,60.03
2016-06-19T11:29:53.884Z,59.64
2016-06-19T11:30:53.247Z,57.9
2016-06-19T11:31:54.125Z,58.1
2016-06-19T11:32:54.129Z,57.81
2016-06-19T11:34:54.339Z,57.42
2016-06-19T11:35:53.327Z,58.1
2016-06-19T11:37:53.771Z,57.42
2016-06-19T11:38:53.556Z,57.71
2016-06-19T11:39:53.357Z,58.68
2016-06-19T11:40:54.250Z,58.39
2016-06-19T11:41:54.284Z,59.35
2016-06-19T11:42:54.055Z,58.29
2016-06-19T11:43:54.074Z,57.42
2016-06-19T11:44:53.436Z,56.94
2016-06-19T11:45:54.315Z,57.62
2016-06-19T11:46:53.474Z,57.81
2016-06-19T11:47:53.697Z,57.04
2016-06-19T11:49:08.341Z,57.42
2016-06-19T11:49:53.516Z,58.68
2016-06-19T11:50:53.535Z,57.16
2016-06-19T11:51:53.538Z,58.51
2016-06-19T11:52:53.588Z,58.03
2016-06-19T11:53:54.234Z,57.93
2016-06-19T11:54:53.596Z,58.12
2016-06-19T11:55:54.647Z,58.12
2016-06-19T11:57:08.666Z,57.54
2016-06-19T11:57:53.638Z,57.45
2016-06-19T11:58:53.656Z,57.57
2016-06-19T11:59:53.660Z,57.19
2016-06-19T12:00:53.680Z,57.09
2016-06-19T12:01:54.339Z,57.31
2016-06-19T12:02:53.701Z,57.82
2016-06-19T12:04:54.803Z,56.02
2016-06-19T12:05:54.384Z,55.53
2016-06-19T12:07:53.797Z,52.56
2016-06-19T12:08:53.801Z,53.14
2016-06-19T12:09:54.460Z,53.36
2016-06-19T12:10:54.479Z,52.97
2016-06-19T12:11:54.482Z,51.42
2016-06-19T12:12:54.487Z,52.12
2016-06-19T12:13:54.131Z,51.64
2016-06-19T12:14:54.134Z,51.45
2016-06-19T12:15:54.121Z,50.57
2016-06-19T12:16:54.125Z,49.99
2016-06-19T12:17:54.581Z,50.79
2016-06-19T12:18:55.007Z,49.24
2016-06-19T12:19:53.979Z,48.74
2016-06-19T12:21:54.409Z,47.77
2016-06-19T12:23:55.040Z,48.44
2016-06-19T12:24:54.778Z,47.86
2016-06-19T12:25:55.359Z,48.54
2016-06-19T12:26:54.207Z,49.22
2016-06-19T12:27:55.226Z,49.61
2016-06-19T12:28:55.744Z,49.22
2016-06-19T12:29:55.076Z,49.9
2016-06-19T12:30:55.018Z,50.09
2016-06-19T12:31:54.817Z,49.8
2016-06-19T12:32:54.196Z,49.32
2016-06-19T12:35:55.518Z,47.74
2016-06-19T12:36:55.335Z,47.45
2016-06-19T12:37:54.932Z,47.84
2016-06-19T12:38:54.296Z,48.52
2016-06-19T12:39:54.548Z,47.84
2016-06-19T12:40:54.536Z,45.9
2016-06-19T12:41:54.384Z,47.64
2016-06-19T12:43:09.403Z,47.74
2016-06-19T12:43:55.610Z,48.22
2016-06-19T12:44:54.378Z,46.77
2016-06-19T12:45:54.711Z,46.22
2016-06-19T12:47:54.467Z,46.14
2016-06-19T12:48:54.658Z,47.79
2016-06-19T12:49:54.474Z,48.08
2016-06-19T12:50:54.492Z,48
2016-06-19T12:51:54.496Z,47.72
2016-06-19T12:52:54.812Z,46.65
2016-06-19T12:54:55.585Z,45.8
2016-06-19T12:56:55.452Z,44.64
2016-06-19T12:58:09.455Z,44.15
2016-06-19T12:58:55.256Z,44.42
2016-06-19T12:59:54.664Z,43.26
2016-06-19T13:00:54.683Z,44.9
2016-06-19T13:01:55.516Z,44.9
2016-06-19T13:04:55.557Z,45.78
2016-06-19T13:05:55.608Z,45.48
2016-06-19T13:06:55.626Z,45.2
2016-06-19T13:07:55.411Z,45.1
2016-06-19T13:08:55.477Z,43.95
2016-06-19T13:09:54.824Z,43.27
2016-06-19T13:10:55.672Z,43.66
2016-06-19T13:11:55.034Z,43.76
2016-06-19T13:13:09.693Z,43.27
2016-06-19T13:13:55.510Z,41.63
2016-06-19T13:14:55.732Z,42.99
2016-06-19T13:15:54.907Z,43.27
2016-06-19T13:16:55.130Z,40.08
2016-06-19T13:17:55.792Z,42.99
2016-06-19T13:19:10.221Z,41.72
2016-06-19T13:20:55.000Z,42.52
2016-06-19T13:21:55.022Z,42.81
2016-06-19T13:23:55.687Z,41.26
2016-06-19T13:25:10.129Z,41.94
2016-06-19T13:25:55.119Z,41.26
2016-06-19T13:26:55.124Z,41.94
2016-06-19T13:27:55.798Z,41.55
2016-06-19T13:28:55.552Z,41.55
2016-06-19T13:29:56.244Z,40.87
2016-06-19T13:30:55.825Z,40.29
2016-06-19T13:31:55.204Z,40.77
2016-06-19T13:32:55.224Z,41.26
2016-06-19T13:33:55.259Z,42.13
2016-06-19T13:34:56.122Z,41.74
2016-06-19T13:36:10.126Z,40
2016-06-19T13:36:55.927Z,39.9
2016-06-19T13:37:55.305Z,39.61
2016-06-19T13:38:56.200Z,40.11
2016-06-19T13:40:56.238Z,41.74
2016-06-19T13:41:56.225Z,42.74
2016-06-19T13:42:55.401Z,42.25
2016-06-19T13:44:56.095Z,42.81
2016-06-19T13:45:56.708Z,40.19
2016-06-19T13:46:56.337Z,39.41
2016-06-19T13:47:56.356Z,39.51
2016-06-19T13:49:10.562Z,39.8
2016-06-19T13:49:55.550Z,39.32
2016-06-19T13:50:55.741Z,40.09
2016-06-19T13:51:56.417Z,40.08
2016-06-19T13:53:10.451Z,40.19
2016-06-19T13:53:55.814Z,39.11
2016-06-19T13:54:56.505Z,38.73
2016-06-19T13:55:55.634Z,40.09
2016-06-19T13:56:55.637Z,39.98
2016-06-19T13:58:56.722Z,39.01
2016-06-19T13:59:55.726Z,38.89
2016-06-19T14:00:56.337Z,39.29
2016-06-19T14:01:55.764Z,40.05
2016-06-19T14:02:56.595Z,39.95
2016-06-19T14:03:56.396Z,38.02
2016-06-19T14:05:56.668Z,40.61
2016-06-19T14:06:55.812Z,40.33
2016-06-19T14:07:55.831Z,40.13
2016-06-19T14:08:56.037Z,40.71
2016-06-19T14:09:56.072Z,40.52
2016-06-19T14:11:10.733Z,41.3
2016-06-19T14:11:56.533Z,41.47
2016-06-19T14:12:55.911Z,42.26
2016-06-19T14:13:56.586Z,41.66
2016-06-19T14:15:10.794Z,42.05
2016-06-19T14:15:56.609Z,41.27
2016-06-19T14:16:56.613Z,41.08
2016-06-19T14:17:56.647Z,41.47
2016-06-19T14:18:56.025Z,41.39
2016-06-19T14:19:56.420Z,40.71
2016-06-19T14:20:56.907Z,40.33